Time;durP1;ratioP1;P1;durP2;ratioP2;P2;SDS_P1;SDS_P2;PMS_P1;PMS_P2;Temp;Humidity;BMP_temperature;BMP_pressure;BME280_temperature;BME280_humidity;BME280_pressure;Samples;Min_cycle;Max_cycle;Signal;HPM_P1;HPM_P2
2021/05/11 00:01:45;;;;;;;0.95;0.80;;;;;;;;;;5093410;28;20027;-46
2021/05/11 00:04:12;;;;;;;1.17;0.90;;;;;;;;;;5093396;28;20016;-46
2021/05/11 00:06:38;;;;;;;2.47;0.80;;;;;;;;;;5093211;28;20028;-48
2021/05/11 00:09:05;;;;;;;1.20;1.10;;;;;;;;;;5093783;28;20073;-46
2021/05/11 00:11:31;;;;;;;1.00;1.00;;;;;;;;;;5092770;28;20020;-47
2021/05/11 00:13:57;;;;;;;2.85;1.45;;;;;;;;;;5093371;28;20030;-46
2021/05/11 00:16:23;;;;;;;1.40;1.20;;;;;;;;;;5093336;28;20020;-46
2021/05/11 00:18:49;;;;;;;1.50;1.00;;;;;;;;;;5093295;28;20024;-46
2021/05/11 00:21:15;;;;;;;1.27;1.17;;;;;;;;;;5092939;28;20049;-47
2021/05/11 00:23:41;;;;;;;2.25;1.30;;;;;;;;;;5093583;28;20024;-46
2021/05/11 00:26:07;;;;;;;1.52;1.10;;;;;;;;;;5093365;28;20019;-46
2021/05/11 00:28:33;;;;;;;1.08;0.98;;;;;;;;;;5095277;28;20361;-46
2021/05/11 00:30:59;;;;;;;2.60;1.08;;;;;;;;;;5097062;28;20047;-46
2021/05/11 00:33:25;;;;;;;2.53;1.45;;;;;;;;;;5097271;28;20032;-46
2021/05/11 00:35:51;;;;;;;1.90;1.30;;;;;;;;;;5097145;28;20020;-46
2021/05/11 00:38:17;;;;;;;1.52;1.42;;;;;;;;;;5096991;28;20039;-46
2021/05/11 00:40:43;;;;;;;1.75;1.27;;;;;;;;;;5096570;28;20051;-46
2021/05/11 00:43:09;;;;;;;1.75;1.30;;;;;;;;;;5097117;28;20020;-48
2021/05/11 00:45:35;;;;;;;1.75;1.17;;;;;;;;;;5096834;28;20032;-46
2021/05/11 00:48:01;;;;;;;1.05;1.05;;;;;;;;;;5097123;28;20020;-47
2021/05/11 00:50:27;;;;;;;1.10;1.02;;;;;;;;;;5096631;28;20035;-47
2021/05/11 00:52:53;;;;;;;1.30;1.20;;;;;;;;;;5096857;28;20040;-47
2021/05/11 00:55:20;;;;;;;2.58;2.13;;;;;;;;;;5096335;28;20438;-46
2021/05/11 00:57:46;;;;;;;2.03;1.50;;;;;;;;;;5096883;28;20035;-46
2021/05/11 01:00:13;;;;;;;1.52;1.35;;;;;;;;;;5096758;28;20103;-46
2021/05/11 01:02:39;;;;;;;1.20;1.10;;;;;;;;;;5096831;28;20067;-48
2021/05/11 01:05:06;;;;;;;2.05;1.67;;;;;;;;;;5096413;28;20357;-46
2021/05/11 01:07:32;;;;;;;6.13;1.80;;;;;;;;;;5088971;28;20032;-46
2021/05/11 01:09:58;;;;;;;2.13;1.88;;;;;;;;;;5076214;28;20025;-47
2021/05/11 01:12:24;;;;;;;1.67;1.35;;;;;;;;;;5075697;28;20072;-46
2021/05/11 01:14:51;;;;;;;2.13;1.75;;;;;;;;;;5075953;28;20430;-46
2021/05/11 01:17:23;;;;;;;1.75;1.40;;;;;;;;;;5075980;28;20471;-47
2021/05/11 01:19:54;;;;;;;5.93;1.85;;;;;;;;;;5076440;28;20346;-47
2021/05/11 01:22:44;;;;;;;3.78;2.00;;;;;;;;;;5075668;28;20043;-47
2021/05/11 01:25:14;;;;;;;4.20;1.95;;;;;;;;;;5076045;28;20339;-46
2021/05/11 01:44:12;;;;;;;4.45;2.70;;;;;;;;;;5075864;28;20404;-46
2021/05/11 02:23:46;;;;;;;3.63;2.28;;;;;;;;;;5095004;28;20460;-46
2021/05/11 02:26:12;;;;;;;3.47;2.50;;;;;;;;;;5095365;28;20028;-47
2021/05/11 02:28:38;;;;;;;3.95;3.08;;;;;;;;;;5094483;28;20209;-46
2021/05/11 02:31:04;;;;;;;3.05;2.35;;;;;;;;;;5087316;28;20099;-46
2021/05/11 02:33:30;;;;;;;3.47;2.40;;;;;;;;;;5095207;28;20438;-47
2021/05/11 02:35:56;;;;;;;3.42;2.80;;;;;;;;;;5094560;28;20023;-46
2021/05/11 02:38:22;;;;;;;4.22;2.92;;;;;;;;;;5094641;28;20456;-46
2021/05/11 02:40:48;;;;;;;3.65;2.38;;;;;;;;;;5094110;28;20110;-46
2021/05/11 02:43:22;;;;;;;3.75;2.80;;;;;;;;;;5094694;28;20089;-47
2021/05/11 02:45:48;;;;;;;13.13;3.08;;;;;;;;;;5094946;28;20031;-46
2021/05/11 02:48:14;;;;;;;4.03;2.38;;;;;;;;;;5094651;28;20396;-46
2021/05/11 02:50:40;;;;;;;3.88;2.90;;;;;;;;;;5093447;28;20020;-46
2021/05/11 02:53:06;;;;;;;4.07;2.95;;;;;;;;;;5093554;28;20122;-47
2021/05/11 02:55:32;;;;;;;7.88;2.90;;;;;;;;;;5094458;28;20023;-46
2021/05/11 02:57:59;;;;;;;17.38;4.25;;;;;;;;;;5094384;28;20135;-46
2021/05/11 03:00:27;;;;;;;9.10;2.95;;;;;;;;;;5094325;28;20020;-46
2021/05/11 03:02:53;;;;;;;3.45;2.60;;;;;;;;;;5094195;28;20115;-46
2021/05/11 03:05:19;;;;;;;3.22;2.50;;;;;;;;;;5094374;28;20031;-46
2021/05/11 03:07:45;;;;;;;3.85;2.25;;;;;;;;;;5094121;28;20353;-46
2021/05/11 03:10:12;;;;;;;3.08;2.42;;;;;;;;;;5093247;28;20044;-46
2021/05/11 03:12:38;;;;;;;5.43;3.17;;;;;;;;;;5094099;28;20061;-46
2021/05/11 03:15:05;;;;;;;4.20;2.90;;;;;;;;;;5093898;28;20024;-46
2021/05/11 03:17:31;;;;;;;3.08;2.28;;;;;;;;;;5094120;28;20040;-47
2021/05/11 03:19:58;;;;;;;4.90;2.95;;;;;;;;;;5094320;28;20020;-46
2021/05/11 03:22:24;;;;;;;3.83;2.63;;;;;;;;;;5093879;28;20052;-48
2021/05/11 03:24:49;;;;;;;4.63;2.75;;;;;;;;;;5093619;28;20065;-47
2021/05/11 03:27:17;;;;;;;3.75;2.45;;;;;;;;;;5093766;28;20353;-46
2021/05/11 03:29:43;;;;;;;6.55;2.78;;;;;;;;;;5093973;28;20028;-47
2021/05/11 03:32:09;;;;;;;4.93;2.45;;;;;;;;;;5093335;28;20044;-46
2021/05/11 03:34:36;;;;;;;4.60;2.70;;;;;;;;;;5093792;28;20509;-46
2021/05/11 03:37:02;;;;;;;4.55;3.03;;;;;;;;;;5093613;28;20028;-47
2021/05/11 03:39:33;;;;;;;4.05;2.78;;;;;;;;;;5093336;28;20456;-46
2021/05/11 03:42:04;;;;;;;5.88;2.70;;;;;;;;;;5093395;28;20031;-47
2021/05/11 03:44:32;;;;;;;5.00;2.92;;;;;;;;;;5094009;28;20074;-46
2021/05/11 03:46:58;;;;;;;7.22;3.10;;;;;;;;;;5093787;28;20107;-46
2021/05/11 03:49:24;;;;;;;9.73;3.55;;;;;;;;;;5093486;28;20103;-46
2021/05/11 03:51:50;;;;;;;5.60;3.35;;;;;;;;;;5092901;28;20353;-46
2021/05/11 03:54:16;;;;;;;3.53;2.80;;;;;;;;;;5093528;28;20035;-47
2021/05/11 03:56:42;;;;;;;4.53;3.13;;;;;;;;;;5093414;28;20024;-47
2021/05/11 03:59:08;;;;;;;4.53;2.53;;;;;;;;;;5093362;28;20035;-46
2021/05/11 04:01:34;;;;;;;4.55;2.90;;;;;;;;;;5092318;28;20021;-46
2021/05/11 04:04:00;;;;;;;4.00;3.13;;;;;;;;;;5093630;28;20024;-47
2021/05/11 04:06:26;;;;;;;4.18;2.95;;;;;;;;;;5092775;28;20154;-46
2021/05/11 04:16:49;;;;;;;4.10;3.28;;;;;;;;;;5073136;28;20082;-46
2021/05/11 04:19:15;;;;;;;7.05;3.50;;;;;;;;;;5073262;28;20111;-46
2021/05/11 04:21:41;;;;;;;7.18;3.78;;;;;;;;;;5072338;28;20029;-46
2021/05/11 04:24:07;;;;;;;4.75;3.40;;;;;;;;;;5071758;28;20036;-47
2021/05/11 04:26:33;;;;;;;4.63;3.75;;;;;;;;;;5073044;28;20029;-47
2021/05/11 04:29:01;;;;;;;5.47;3.80;;;;;;;;;;5092470;28;20073;-47
2021/05/11 04:31:27;;;;;;;9.43;4.15;;;;;;;;;;5092496;28;20642;-47
2021/05/11 04:33:56;;;;;;;5.00;3.30;;;;;;;;;;5093193;28;20039;-47
2021/05/11 04:36:22;;;;;;;6.95;4.28;;;;;;;;;;5093383;28;20024;-47
2021/05/11 04:38:48;;;;;;;6.32;3.75;;;;;;;;;;5093086;28;20056;-47
2021/05/11 04:41:14;;;;;;;8.13;4.35;;;;;;;;;;5091767;28;20110;-46
2021/05/11 04:43:41;;;;;;;8.73;4.18;;;;;;;;;;5089514;28;20037;-47
2021/05/11 04:48:45;;;;;;;5.82;4.03;;;;;;;;;;5073174;28;20028;-46
2021/05/11 04:51:12;;;;;;;10.25;4.90;;;;;;;;;;5078006;28;20073;-47
2021/05/11 04:53:38;;;;;;;5.72;3.85;;;;;;;;;;5093083;28;20047;-47
2021/05/11 04:56:04;;;;;;;6.97;4.22;;;;;;;;;;5092874;28;20020;-46
2021/05/11 04:58:30;;;;;;;8.00;4.70;;;;;;;;;;5092640;28;20102;-48
2021/05/11 05:01:03;;;;;;;6.78;4.13;;;;;;;;;;5092914;28;20028;-46
2021/05/11 05:03:30;;;;;;;7.22;4.68;;;;;;;;;;5092782;28;20020;-46
2021/05/11 05:05:57;;;;;;;6.15;3.75;;;;;;;;;;5092732;28;20111;-46
2021/05/11 05:08:23;;;;;;;7.70;4.47;;;;;;;;;;5077925;28;20036;-46
2021/05/11 05:10:49;;;;;;;7.05;4.13;;;;;;;;;;5072261;28;20024;-46
2021/05/11 05:13:19;;;;;;;6.97;4.00;;;;;;;;;;5072562;28;20032;-46
2021/05/11 05:15:45;;;;;;;6.97;4.50;;;;;;;;;;5076428;28;20085;-46
2021/05/11 05:18:11;;;;;;;7.72;3.97;;;;;;;;;;5076303;28;20100;-46
2021/05/11 05:20:37;;;;;;;7.68;4.05;;;;;;;;;;5075772;28;20506;-47
2021/05/11 05:23:03;;;;;;;8.13;4.22;;;;;;;;;;5076355;28;20029;-46
2021/05/11 05:25:29;;;;;;;8.00;4.10;;;;;;;;;;5076040;28;20430;-46
2021/05/11 05:30:21;;;;;;;7.60;4.40;;;;;;;;;;5095903;28;20040;-47
2021/05/11 05:32:47;;;;;;;6.32;3.88;;;;;;;;;;5096167;28;20119;-46
2021/05/11 05:35:13;;;;;;;7.25;3.83;;;;;;;;;;5096250;28;20058;-46
2021/05/11 05:37:39;;;;;;;7.80;4.00;;;;;;;;;;5095843;28;20028;-46
2021/05/11 05:40:08;;;;;;;6.10;3.70;;;;;;;;;;5095948;28;20023;-47
2021/05/11 05:42:34;;;;;;;6.45;3.55;;;;;;;;;;5095567;28;20059;-47
2021/05/11 05:45:00;;;;;;;5.32;3.40;;;;;;;;;;5095995;28;20020;-46
2021/05/11 05:47:26;;;;;;;5.93;3.42;;;;;;;;;;5095946;28;20506;-46
2021/05/11 05:50:00;;;;;;;7.30;3.63;;;;;;;;;;5096030;28;20043;-46
2021/05/11 05:52:34;;;;;;;7.57;4.32;;;;;;;;;;5095642;28;20342;-48
2021/05/11 05:55:00;;;;;;;5.15;3.60;;;;;;;;;;5095571;28;20024;-46
2021/05/11 05:57:26;;;;;;;9.05;5.05;;;;;;;;;;5095959;28;20036;-46
2021/05/11 05:59:52;;;;;;;7.05;4.18;;;;;;;;;;5095797;28;20024;-46
2021/05/11 06:02:20;;;;;;;5.78;3.60;;;;;;;;;;5095178;28;20430;-46
2021/05/11 06:04:46;;;;;;;7.63;4.30;;;;;;;;;;5095283;28;20028;-47
2021/05/11 06:07:13;;;;;;;6.45;3.53;;;;;;;;;;5095262;28;20354;-46
2021/05/11 06:09:39;;;;;;;8.27;4.07;;;;;;;;;;5095184;28;20475;-47
2021/05/11 06:12:09;;;;;;;4.20;3.38;;;;;;;;;;5095215;28;20044;-45
2021/05/11 06:17:20;;;;;;;8.65;3.63;;;;;;;;;;5095345;28;20372;-47
2021/05/11 06:19:52;;;;;;;7.80;3.58;;;;;;;;;;5095023;28;20020;-46
2021/05/11 06:22:18;;;;;;;9.27;4.20;;;;;;;;;;5095578;28;20035;-47
2021/05/11 06:24:45;;;;;;;5.47;3.28;;;;;;;;;;5094270;28;20100;-47
2021/05/11 06:27:12;;;;;;;6.13;4.13;;;;;;;;;;5094815;28;20020;-47
2021/05/11 06:29:40;;;;;;;5.50;3.85;;;;;;;;;;5094860;28;20068;-46
2021/05/11 06:32:07;;;;;;;5.63;3.42;;;;;;;;;;5094967;28;20036;-47
2021/05/11 06:34:33;;;;;;;9.85;4.05;;;;;;;;;;5094261;28;20110;-46
2021/05/11 06:36:59;;;;;;;6.55;3.47;;;;;;;;;;5094911;28;20055;-47
2021/05/11 06:39:25;;;;;;;7.97;3.95;;;;;;;;;;5094953;28;20066;-46
2021/05/11 06:41:54;;;;;;;6.45;3.95;;;;;;;;;;5094477;28;20103;-47
2021/05/11 06:54:55;;;;;;;7.38;4.40;;;;;;;;;;5094459;28;20032;-46
2021/05/11 06:57:21;;;;;;;8.07;3.95;;;;;;;;;;5094219;28;20160;-46
2021/05/11 06:59:47;;;;;;;6.65;4.10;;;;;;;;;;5094576;28;20111;-47
2021/05/11 07:02:13;;;;;;;7.45;4.25;;;;;;;;;;5094092;28;20122;-46
2021/05/11 07:04:39;;;;;;;11.18;4.32;;;;;;;;;;5094289;28;20028;-46
2021/05/11 07:07:10;;;;;;;7.03;4.00;;;;;;;;;;5090969;28;20016;-46
2021/05/11 07:14:31;;;;;;;15.00;4.55;;;;;;;;;;5073825;28;20020;-45
2021/05/11 07:16:57;;;;;;;9.63;4.65;;;;;;;;;;5074243;28;20499;-46
2021/05/11 07:19:24;;;;;;;11.02;5.15;;;;;;;;;;5073667;28;20032;-47
2021/05/11 07:21:51;;;;;;;10.25;5.00;;;;;;;;;;5073367;28;20028;-47
2021/05/11 07:24:18;;;;;;;6.25;3.95;;;;;;;;;;5073561;28;20182;-46
2021/05/11 07:27:01;;;;;;;10.85;4.72;;;;;;;;;;5074652;28;20090;-46
2021/05/11 07:32:12;;;;;;;8.15;4.75;;;;;;;;;;5093651;28;20051;-46
2021/05/11 07:34:42;;;;;;;12.00;5.15;;;;;;;;;;5093944;28;20020;-46
2021/05/11 07:37:08;;;;;;;9.65;4.43;;;;;;;;;;5093694;28;20040;-46
2021/05/11 07:39:34;;;;;;;12.18;5.38;;;;;;;;;;5093411;28;20348;-46
2021/05/11 07:42:00;;;;;;;8.38;4.75;;;;;;;;;;5093498;28;20111;-46
2021/05/11 07:44:28;;;;;;;11.40;5.70;;;;;;;;;;5093864;28;20024;-47
2021/05/11 07:47:10;;;;;;;12.10;4.65;;;;;;;;;;5093605;28;20031;-46
2021/05/11 08:06:10;;;;;;;10.02;5.22;;;;;;;;;;5102316;28;20028;-46
2021/05/11 08:16:34;;;;;;;15.27;5.82;;;;;;;;;;5093048;28;20081;-46
2021/05/11 08:19:14;;;;;;;10.45;5.57;;;;;;;;;;5093511;28;20047;-46
2021/05/11 08:22:02;;;;;;;15.23;5.63;;;;;;;;;;5093103;28;20415;-46
2021/05/11 08:29:58;;;;;;;13.52;6.03;;;;;;;;;;5093023;28;20404;-46
2021/05/11 08:32:24;;;;;;;14.00;7.72;;;;;;;;;;5092781;28;20028;-46
2021/05/11 08:34:50;;;;;;;11.63;6.28;;;;;;;;;;5093048;28;20016;-46
2021/05/11 08:37:16;;;;;;;10.10;5.35;;;;;;;;;;5092926;28;20362;-46
2021/05/11 08:39:46;;;;;;;18.75;5.95;;;;;;;;;;5092756;28;20030;-47
2021/05/11 08:42:12;;;;;;;12.35;6.25;;;;;;;;;;5092831;28;20099;-46
2021/05/11 08:44:38;;;;;;;11.80;5.80;;;;;;;;;;5092920;28;20487;-46
2021/05/11 08:47:05;;;;;;;12.48;7.00;;;;;;;;;;5092934;28;20059;-46
2021/05/11 08:49:31;;;;;;;14.95;7.28;;;;;;;;;;5095518;28;20036;-46
2021/05/11 09:05:07;;;;;;;11.43;5.47;;;;;;;;;;5096922;28;20122;-46
2021/05/11 09:26:50;;;;;;;9.90;5.03;;;;;;;;;;5096384;28;20035;-46
2021/05/11 09:32:12;;;;;;;12.55;6.18;;;;;;;;;;5075671;28;20040;-46
2021/05/11 09:57:07;;;;;;;11.82;5.70;;;;;;;;;;5095249;28;20028;-46
2021/05/11 10:41:31;;;;;;;8.27;4.20;;;;;;;;;;5094511;28;20050;-46
2021/05/11 10:49:19;;;;;;;9.50;4.47;;;;;;;;;;5094571;28;20032;-46
2021/05/11 10:51:45;;;;;;;8.52;4.60;;;;;;;;;;5094016;28;20028;-46
2021/05/11 10:54:13;;;;;;;9.30;4.90;;;;;;;;;;5094681;28;20028;-46
2021/05/11 10:56:45;;;;;;;7.53;4.35;;;;;;;;;;5094707;28;20509;-46
2021/05/11 11:01:42;;;;;;;11.23;4.40;;;;;;;;;;5094327;28;20437;-47
2021/05/11 11:04:08;;;;;;;7.82;4.65;;;;;;;;;;5094689;28;20078;-47
2021/05/11 11:06:53;;;;;;;8.60;5.00;;;;;;;;;;5094234;28;20031;-46
2021/05/11 11:09:19;;;;;;;7.93;4.40;;;;;;;;;;5094634;28;20020;-47
2021/05/11 11:11:45;;;;;;;7.47;3.80;;;;;;;;;;5092938;28;20031;-47
2021/05/11 11:14:11;;;;;;;9.10;5.00;;;;;;;;;;5094402;28;20031;-46
2021/05/11 11:16:37;;;;;;;8.52;4.80;;;;;;;;;;5093962;28;20425;-46
2021/05/11 11:19:09;;;;;;;12.57;4.82;;;;;;;;;;5094487;28;20020;-46
2021/05/11 11:24:29;;;;;;;10.18;4.60;;;;;;;;;;5094288;28;20032;-47
2021/05/11 11:26:57;;;;;;;15.35;5.35;;;;;;;;;;5093844;28;20024;-46
2021/05/11 11:29:23;;;;;;;13.27;5.10;;;;;;;;;;5094010;28;20039;-46
2021/05/11 11:31:50;;;;;;;9.68;5.53;;;;;;;;;;5093372;28;20468;-46
2021/05/11 11:34:35;;;;;;;8.38;5.05;;;;;;;;;;5093952;28;20051;-46
2021/05/11 11:37:07;;;;;;;7.78;4.82;;;;;;;;;;5093839;28;20407;-46
2021/05/11 11:39:35;;;;;;;10.75;5.55;;;;;;;;;;5094079;28;20040;-46
2021/05/11 11:42:02;;;;;;;11.63;5.60;;;;;;;;;;5093561;28;20024;-46
2021/05/11 11:44:32;;;;;;;15.57;6.07;;;;;;;;;;5093536;28;20450;-46
2021/05/11 11:47:01;;;;;;;12.07;5.78;;;;;;;;;;5093575;28;20058;-46
2021/05/11 11:49:29;;;;;;;8.68;4.50;;;;;;;;;;5093677;28;20095;-45
2021/05/11 12:00:20;;;;;;;10.88;5.60;;;;;;;;;;5093576;28;20039;-46
2021/05/11 12:02:56;;;;;;;9.75;4.82;;;;;;;;;;5093496;28;20103;-46
2021/05/11 12:05:23;;;;;;;11.75;5.80;;;;;;;;;;5093631;28;20022;-46
2021/05/11 12:10:36;;;;;;;13.20;6.70;;;;;;;;;;5075388;28;20029;-46
2021/05/11 12:13:03;;;;;;;11.57;5.82;;;;;;;;;;5079060;28;20036;-46
2021/05/11 12:15:29;;;;;;;12.10;4.72;;;;;;;;;;5073360;28;20134;-46
2021/05/11 12:18:00;;;;;;;8.40;5.00;;;;;;;;;;5072989;28;20059;-46
2021/05/11 12:20:26;;;;;;;16.48;5.43;;;;;;;;;;5073002;28;20416;-46
2021/05/11 12:23:02;;;;;;;10.15;5.15;;;;;;;;;;5091876;28;20355;-46
2021/05/11 12:25:28;;;;;;;11.43;5.53;;;;;;;;;;5096315;28;20047;-46
2021/05/11 12:27:54;;;;;;;9.27;5.43;;;;;;;;;;5096534;28;20024;-46
2021/05/11 12:30:20;;;;;;;10.98;5.40;;;;;;;;;;5096776;28;20354;-45
2021/05/11 12:32:46;;;;;;;12.23;5.50;;;;;;;;;;5097060;28;20032;-46
2021/05/11 12:35:13;;;;;;;9.77;4.93;;;;;;;;;;5096857;28;20127;-46
2021/05/11 12:37:46;;;;;;;8.77;4.68;;;;;;;;;;5097232;28;20051;-46
2021/05/11 12:40:32;;;;;;;9.02;5.28;;;;;;;;;;5096997;28;20086;-47
2021/05/11 12:43:01;;;;;;;11.85;5.50;;;;;;;;;;5097038;28;20031;-46
2021/05/11 12:45:28;;;;;;;11.65;4.72;;;;;;;;;;5096891;28;20352;-46
2021/05/11 12:48:00;;;;;;;8.57;5.25;;;;;;;;;;5097299;28;20032;-46
2021/05/11 12:50:29;;;;;;;11.35;5.60;;;;;;;;;;5096919;28;20414;-47
2021/05/11 12:52:59;;;;;;;10.50;5.18;;;;;;;;;;5096944;28;20035;-46
2021/05/11 12:55:35;;;;;;;9.95;4.93;;;;;;;;;;5096946;28;20039;-47
2021/05/11 12:58:19;;;;;;;12.65;5.50;;;;;;;;;;5096619;28;20031;-46
2021/05/11 13:00:48;;;;;;;11.23;5.53;;;;;;;;;;5096817;28;20078;-47
2021/05/11 13:03:36;;;;;;;9.65;4.78;;;;;;;;;;5096777;28;20028;-46
2021/05/11 13:14:48;;;;;;;6.80;4.32;;;;;;;;;;5076364;28;20369;-46
2021/05/11 13:22:41;;;;;;;9.60;5.63;;;;;;;;;;5076142;28;20036;-46
2021/05/11 13:27:48;;;;;;;9.90;5.28;;;;;;;;;;5083898;28;20064;-46
2021/05/11 13:35:12;;;;;;;11.95;5.57;;;;;;;;;;5095557;28;20111;-45
2021/05/11 13:37:38;;;;;;;9.35;5.53;;;;;;;;;;5095813;28;20498;-46
2021/05/11 13:40:05;;;;;;;11.30;5.53;;;;;;;;;;5095448;28;20036;-47
2021/05/11 13:42:31;;;;;;;10.23;4.53;;;;;;;;;;5096113;28;20107;-46
2021/05/11 13:44:57;;;;;;;14.65;5.90;;;;;;;;;;5096157;28;20124;-46
2021/05/11 13:47:24;;;;;;;7.75;4.65;;;;;;;;;;5096040;28;20031;-47
2021/05/11 13:49:56;;;;;;;9.57;5.25;;;;;;;;;;5095855;28;20047;-46
2021/05/11 13:52:22;;;;;;;8.20;4.32;;;;;;;;;;5095434;28;20114;-46
2021/05/11 13:54:53;;;;;;;9.50;4.93;;;;;;;;;;5095668;28;20051;-46
2021/05/11 14:03:03;;;;;;;7.53;4.35;;;;;;;;;;5096100;28;20062;-46
2021/05/11 14:05:29;;;;;;;9.18;4.93;;;;;;;;;;5095245;28;20023;-47
2021/05/11 14:07:55;;;;;;;7.80;4.60;;;;;;;;;;5084887;28;20025;-47
2021/05/11 14:10:22;;;;;;;11.85;4.40;;;;;;;;;;5074874;28;20098;-46
2021/05/11 14:12:49;;;;;;;8.13;4.85;;;;;;;;;;5075159;28;20033;-47
2021/05/11 14:15:15;;;;;;;6.28;3.80;;;;;;;;;;5075102;28;20085;-46
2021/05/11 14:17:41;;;;;;;8.95;3.85;;;;;;;;;;5075372;28;20024;-46
2021/05/11 14:20:07;;;;;;;8.70;4.20;;;;;;;;;;5075003;28;20035;-47
2021/05/11 14:22:33;;;;;;;7.70;4.45;;;;;;;;;;5074909;28;20439;-46
2021/05/11 14:24:59;;;;;;;7.97;4.30;;;;;;;;;;5075094;28;20403;-46
2021/05/11 14:27:27;;;;;;;6.93;4.00;;;;;;;;;;5081403;28;20048;-46
2021/05/11 14:29:53;;;;;;;7.03;3.75;;;;;;;;;;5094859;28;20036;-46
2021/05/11 14:32:19;;;;;;;7.53;3.88;;;;;;;;;;5094765;28;20081;-46
2021/05/11 14:34:46;;;;;;;8.63;4.72;;;;;;;;;;5095167;28;20023;-46
2021/05/11 14:37:12;;;;;;;8.02;4.22;;;;;;;;;;5094787;28;20480;-46
2021/05/11 14:39:38;;;;;;;11.57;3.75;;;;;;;;;;5094749;28;20030;-46
2021/05/11 14:42:05;;;;;;;5.70;3.67;;;;;;;;;;5094264;28;20338;-47
2021/05/11 14:44:31;;;;;;;6.35;3.63;;;;;;;;;;5094989;28;20040;-46
2021/05/11 14:46:57;;;;;;;6.85;3.95;;;;;;;;;;5094029;28;20024;-47
2021/05/11 14:49:23;;;;;;;6.90;3.17;;;;;;;;;;5094933;28;20024;-47
2021/05/11 14:51:49;;;;;;;5.00;3.72;;;;;;;;;;5094312;28;20027;-46
2021/05/11 14:54:15;;;;;;;6.28;3.80;;;;;;;;;;5093389;28;20040;-47
2021/05/11 14:56:41;;;;;;;5.45;3.53;;;;;;;;;;5094342;28;20027;-47
2021/05/11 14:59:11;;;;;;;5.85;3.47;;;;;;;;;;5094748;28;20024;-47
2021/05/11 15:01:38;;;;;;;7.25;3.72;;;;;;;;;;5094183;28;20354;-47
2021/05/11 15:04:04;;;;;;;7.05;3.88;;;;;;;;;;5094423;28;20024;-46
2021/05/11 15:06:30;;;;;;;6.82;3.92;;;;;;;;;;5094396;28;20107;-47
2021/05/11 15:08:57;;;;;;;6.63;4.22;;;;;;;;;;5094143;28;20353;-47
2021/05/11 15:11:23;;;;;;;9.98;4.60;;;;;;;;;;5093585;28;20023;-47
2021/05/11 15:13:51;;;;;;;6.60;3.88;;;;;;;;;;5094479;28;20032;-47
2021/05/11 15:16:23;;;;;;;10.95;5.75;;;;;;;;;;5094386;28;20024;-47
2021/05/11 15:18:50;;;;;;;11.07;5.57;;;;;;;;;;5093979;28;20028;-46
2021/05/11 15:21:17;;;;;;;6.65;3.85;;;;;;;;;;5093756;28;20020;-46
2021/05/11 15:23:43;;;;;;;11.45;5.30;;;;;;;;;;5093703;28;20441;-47
2021/05/11 15:26:12;;;;;;;11.48;5.20;;;;;;;;;;5093977;28;20365;-46
2021/05/11 15:28:39;;;;;;;15.55;5.28;;;;;;;;;;5093682;28;20510;-47
2021/05/11 15:31:05;;;;;;;12.35;5.88;;;;;;;;;;5093856;28;20028;-47
2021/05/11 15:33:32;;;;;;;9.68;5.57;;;;;;;;;;5094163;28;20064;-47
2021/05/11 15:35:58;;;;;;;11.02;5.05;;;;;;;;;;5093631;28;20068;-46
2021/05/11 15:38:28;;;;;;;11.35;6.45;;;;;;;;;;5093831;28;20160;-46
2021/05/11 15:40:54;;;;;;;13.45;6.13;;;;;;;;;;5093592;28;20031;-46
2021/05/11 15:43:20;;;;;;;13.55;7.25;;;;;;;;;;5094003;28;20362;-46
2021/05/11 15:45:47;;;;;;;7.82;4.97;;;;;;;;;;5093563;28;20053;-46
2021/05/11 15:48:13;;;;;;;10.32;4.93;;;;;;;;;;5093930;28;20031;-46
2021/05/11 15:50:40;;;;;;;11.43;5.65;;;;;;;;;;5093095;28;20023;-46
2021/05/11 15:53:10;;;;;;;9.60;5.53;;;;;;;;;;5093416;28;20404;-46
2021/05/11 15:55:38;;;;;;;10.77;5.75;;;;;;;;;;5093409;28;20498;-47
2021/05/11 15:58:04;;;;;;;10.15;5.30;;;;;;;;;;5093572;28;20040;-46
2021/05/11 16:00:31;;;;;;;10.82;5.25;;;;;;;;;;5092992;28;20020;-46
2021/05/11 16:03:03;;;;;;;9.50;6.15;;;;;;;;;;5093386;28;20109;-46
2021/05/11 16:05:29;;;;;;;10.38;4.85;;;;;;;;;;5092881;28;20464;-46
2021/05/11 16:07:55;;;;;;;7.55;4.45;;;;;;;;;;5082941;28;20025;-46
2021/05/11 16:10:21;;;;;;;7.28;4.70;;;;;;;;;;5072861;28;20027;-47
2021/05/11 16:12:47;;;;;;;9.98;5.10;;;;;;;;;;5072990;28;20028;-46
2021/05/11 16:15:15;;;;;;;11.27;6.05;;;;;;;;;;5072940;28;20027;-46
2021/05/11 16:17:41;;;;;;;11.98;5.40;;;;;;;;;;5073351;28;20134;-46
2021/05/11 16:20:08;;;;;;;11.02;4.90;;;;;;;;;;5072596;28;20437;-46
2021/05/11 16:22:35;;;;;;;10.35;5.05;;;;;;;;;;5073471;28;20108;-47
2021/05/11 16:25:01;;;;;;;10.23;5.40;;;;;;;;;;5072897;28;20029;-46
2021/05/11 16:27:27;;;;;;;10.85;5.18;;;;;;;;;;5079659;28;20448;-46
2021/05/11 16:29:54;;;;;;;10.02;4.93;;;;;;;;;;5092752;28;20119;-46
2021/05/11 16:32:20;;;;;;;11.90;5.65;;;;;;;;;;5093159;28;20028;-46
2021/05/11 16:34:46;;;;;;;9.35;5.03;;;;;;;;;;5092947;28;20081;-46
2021/05/11 16:37:12;;;;;;;16.40;5.15;;;;;;;;;;5093025;28;20052;-47
2021/05/11 16:39:39;;;;;;;12.50;5.80;;;;;;;;;;5093017;28;20021;-46
2021/05/11 16:42:05;;;;;;;9.25;5.65;;;;;;;;;;5092886;28;20145;-46
2021/05/11 16:44:31;;;;;;;7.70;4.97;;;;;;;;;;5093372;28;20024;-47
2021/05/11 16:46:57;;;;;;;11.90;5.40;;;;;;;;;;5093113;28;20031;-46
2021/05/11 16:49:25;;;;;;;9.15;5.13;;;;;;;;;;5092889;28;20020;-46
2021/05/11 16:51:51;;;;;;;9.45;4.85;;;;;;;;;;5092209;28;20361;-46
2021/05/11 16:54:17;;;;;;;9.02;4.07;;;;;;;;;;5080673;28;20100;-46
2021/05/11 16:56:43;;;;;;;5.72;3.67;;;;;;;;;;5082752;28;20399;-46
2021/05/11 16:59:09;;;;;;;6.22;2.17;;;;;;;;;;5089913;28;20020;-46
2021/05/11 17:01:35;;;;;;;4.00;1.50;;;;;;;;;;5089601;28;20418;-46
2021/05/11 17:04:02;;;;;;;1.15;1.05;;;;;;;;;;5091431;28;20069;-46
2021/05/11 17:06:30;;;;;;;3.90;1.35;;;;;;;;;;5091256;28;20495;-46
2021/05/11 17:08:56;;;;;;;1.08;0.98;;;;;;;;;;5090966;28;20016;-46
2021/05/11 17:11:22;;;;;;;1.70;1.25;;;;;;;;;;5085096;28;20078;-46
2021/05/11 17:13:48;;;;;;;2.65;1.63;;;;;;;;;;5082599;28;20524;-46
2021/05/11 17:16:14;;;;;;;2.45;1.55;;;;;;;;;;5090660;28;20047;-46
2021/05/11 17:18:42;;;;;;;2.97;1.67;;;;;;;;;;5095210;28;20024;-46
2021/05/11 17:21:10;;;;;;;2.78;1.50;;;;;;;;;;5094831;28;20023;-46
2021/05/11 17:23:36;;;;;;;3.60;1.38;;;;;;;;;;5093256;28;20484;-46
2021/05/11 17:26:02;;;;;;;3.17;1.40;;;;;;;;;;5089025;28;20116;-46
2021/05/11 17:28:33;;;;;;;0.80;0.80;;;;;;;;;;5091072;28;20156;-47
2021/05/11 17:31:00;;;;;;;1.00;0.68;;;;;;;;;;5095347;28;20039;-47
2021/05/11 17:33:26;;;;;;;1.20;0.75;;;;;;;;;;5089151;28;20036;-47
2021/05/11 17:35:52;;;;;;;2.28;0.60;;;;;;;;;;5087916;28;20020;-47
2021/05/11 17:38:21;;;;;;;0.77;0.70;;;;;;;;;;5094747;28;20024;-47
2021/05/11 17:40:56;;;;;;;0.57;0.57;;;;;;;;;;5093879;28;20028;-46
2021/05/11 17:43:23;;;;;;;0.50;0.50;;;;;;;;;;5094355;28;20109;-46
2021/05/11 17:45:52;;;;;;;0.63;0.63;;;;;;;;;;5094818;28;20027;-46
2021/05/11 17:48:19;;;;;;;3.45;0.98;;;;;;;;;;5093855;28;20028;-46
2021/05/11 17:50:45;;;;;;;3.20;0.85;;;;;;;;;;5093146;28;20055;-46
2021/05/11 17:53:11;;;;;;;1.08;0.77;;;;;;;;;;5093591;28;20476;-47
2021/05/11 17:55:37;;;;;;;0.60;0.60;;;;;;;;;;5093929;28;20020;-46
2021/05/11 17:58:04;;;;;;;1.52;0.80;;;;;;;;;;5093634;28;20020;-46
2021/05/11 18:00:31;;;;;;;0.77;0.77;;;;;;;;;;5093456;28;20119;-47
2021/05/11 18:02:57;;;;;;;0.47;0.47;;;;;;;;;;5093798;28;20035;-46
2021/05/11 18:05:24;;;;;;;0.95;0.60;;;;;;;;;;5094014;28;20035;-47
2021/05/11 18:07:50;;;;;;;0.50;0.50;;;;;;;;;;5093142;28;20681;-46
2021/05/11 18:10:16;;;;;;;0.40;0.40;;;;;;;;;;5093726;28;20103;-47
2021/05/11 18:12:42;;;;;;;0.60;0.45;;;;;;;;;;5092799;28;20339;-45
2021/05/11 18:15:09;;;;;;;0.40;0.40;;;;;;;;;;5093460;28;20506;-46
2021/05/11 18:17:36;;;;;;;0.73;0.30;;;;;;;;;;5094060;28;20076;-46
2021/05/11 18:20:02;;;;;;;1.20;0.47;;;;;;;;;;5093373;28;20016;-46
2021/05/11 18:22:28;;;;;;;0.30;0.30;;;;;;;;;;5091770;28;20028;-45
2021/05/11 18:24:54;;;;;;;0.57;0.50;;;;;;;;;;5093491;28;20672;-46
2021/05/11 18:27:21;;;;;;;0.55;0.50;;;;;;;;;;5093346;28;20035;-46
2021/05/11 18:29:47;;;;;;;1.25;0.70;;;;;;;;;;5093463;28;20356;-46
2021/05/11 18:32:13;;;;;;;0.80;0.75;;;;;;;;;;5093194;28;20047;-46
2021/05/11 18:34:39;;;;;;;0.80;0.73;;;;;;;;;;5093006;28;20020;-47
2021/05/11 18:39:36;;;;;;;0.60;0.60;;;;;;;;;;5092324;28;20118;-46
2021/05/11 18:42:02;;;;;;;0.50;0.50;;;;;;;;;;5093054;28;20431;-46
2021/05/11 18:44:28;;;;;;;1.10;0.68;;;;;;;;;;5092869;28;20022;-46
2021/05/11 18:46:54;;;;;;;0.50;0.50;;;;;;;;;;5092691;28;20131;-46
2021/05/11 18:49:22;;;;;;;0.90;0.60;;;;;;;;;;5090281;28;20043;-46
2021/05/11 18:51:48;;;;;;;2.55;0.80;;;;;;;;;;5092494;28;20103;-46
2021/05/11 18:54:14;;;;;;;2.47;1.10;;;;;;;;;;5092960;28;20055;-47
2021/05/11 18:56:40;;;;;;;3.15;1.23;;;;;;;;;;5093240;28;20424;-46
2021/05/11 18:59:06;;;;;;;2.97;0.90;;;;;;;;;;5093793;28;20099;-46
2021/05/11 19:01:34;;;;;;;1.20;1.10;;;;;;;;;;5092339;28;20073;-46
2021/05/11 19:04:00;;;;;;;1.83;1.23;;;;;;;;;;5092989;28;20020;-46
2021/05/11 19:06:26;;;;;;;3.75;1.63;;;;;;;;;;5093103;28;20034;-46
2021/05/11 19:08:52;;;;;;;5.85;1.38;;;;;;;;;;5092019;28;20024;-46
2021/05/11 19:11:18;;;;;;;2.17;1.27;;;;;;;;;;5092417;28;20461;-46